Ashburn, Missouri
Current Conditions -  °F | °C
As of 9:35 AM on Saturday 25 Oct 2014 (Local Time) from KHAE Reporting Station
Haze Haze  
Wind Chill: 63°   Ceiling: 100
Heat Index: 63°   Visibility: 0.75mi
Dew Point: 59°   Wind: 0mph
Humidity: 88%   Direction: NA
Pressure: 30.06"   Gusts: NA
Location:  39.54°N, 91.17°W
Report Text: KHAE 251435Z AUTO 00000KT 3/4SM BR BKN001 17/15 A3006 RMK AO2
Loading
Personal Weather Stations






























Interactive Weather Map
Tropical Storm Tracking
New forecast layout! Learn more

10-Day Weather Forecast

Advertisements
Track Severe Weather on mobile